createdAt,value
2017-09-04T00:02:07.768Z,97.90
2017-09-04T00:05:13.707Z,98.20
2017-09-04T00:08:20.959Z,98.40
2017-09-04T00:11:26.311Z,98.50
2017-09-04T00:14:31.548Z,98.50
2017-09-04T00:17:38.082Z,98.80
2017-09-04T00:20:43.179Z,98.50
2017-09-04T00:23:51.117Z,98.40
2017-09-04T00:26:57.864Z,98.30
2017-09-04T00:30:05.904Z,98.30
2017-09-04T00:33:11.685Z,98.30
2017-09-04T00:36:17.129Z,98.40
2017-09-04T00:39:24.012Z,98.30
2017-09-04T00:42:30.199Z,98.40
2017-09-04T00:45:36.020Z,98.50
2017-09-04T00:48:42.776Z,98.40
2017-09-04T00:51:48.195Z,98.30
2017-09-04T00:55:00.308Z,98.20
2017-09-04T00:58:06.130Z,98.10
2017-09-04T01:01:10.972Z,98.20
2017-09-04T01:04:16.541Z,98.00
2017-09-04T01:07:22.759Z,98.10
2017-09-04T01:10:28.056Z,98.40
2017-09-04T01:13:33.649Z,98.80
2017-09-04T01:16:41.112Z,98.50
2017-09-04T01:19:46.616Z,98.50
2017-09-04T01:22:51.648Z,98.50
2017-09-04T01:25:56.415Z,98.60
2017-09-04T01:29:01.739Z,98.70
2017-09-04T01:32:07.179Z,98.90
2017-09-04T01:35:12.288Z,99.20
2017-09-04T01:38:18.731Z,99.70
2017-09-04T01:41:25.587Z,99.70
2017-09-04T01:44:31.907Z,99.70
2017-09-04T01:47:37.880Z,99.30
2017-09-04T01:50:43.537Z,99.00
2017-09-04T01:53:57.457Z,98.70
2017-09-04T01:57:03.088Z,98.90
2017-09-04T02:00:08.716Z,99.20
2017-09-04T02:03:13.850Z,99.60
2017-09-04T02:06:18.867Z,99.60
2017-09-04T02:09:23.823Z,99.70
2017-09-04T02:12:35.135Z,99.80
2017-09-04T02:15:40.119Z,99.90
2017-09-04T02:18:45.819Z,99.70
2017-09-04T02:21:50.812Z,99.50
2017-09-04T02:24:56.065Z,99.20
2017-09-04T02:28:01.851Z,99.20
2017-09-04T02:31:06.714Z,99.10
2017-09-04T02:34:13.464Z,99.30
2017-09-04T02:37:18.581Z,99.20
2017-09-04T02:40:25.759Z,99.30
2017-09-04T02:43:30.772Z,99.20
2017-09-04T02:46:36.087Z,99.30
2017-09-04T02:49:43.788Z,99.20
2017-09-04T02:52:51.616Z,99.20
2017-09-04T02:55:59.344Z,99.10
2017-09-04T02:59:05.892Z,98.90
2017-09-04T03:02:10.740Z,99.00
2017-09-04T03:05:15.815Z,99.10
2017-09-04T03:08:21.048Z,98.90
2017-09-04T03:11:26.980Z,98.90
2017-09-04T03:14:32.726Z,99.20
2017-09-04T03:17:37.783Z,99.50
2017-09-04T03:20:44.671Z,99.50
2017-09-04T03:23:49.824Z,99.50
2017-09-04T03:26:55.568Z,99.90
2017-09-04T03:30:00.871Z,99.60
2017-09-04T03:33:06.499Z,99.50
2017-09-04T03:36:13.653Z,99.30
2017-09-04T03:39:18.972Z,99.20
2017-09-04T03:42:24.527Z,99.30
2017-09-04T03:45:29.581Z,99.40
2017-09-04T03:48:34.488Z,99.70
2017-09-04T03:51:39.404Z,99.90
2017-09-04T03:54:44.597Z,99.90
2017-09-04T03:57:50.850Z,99.60
2017-09-04T04:00:56.279Z,99.20
2017-09-04T04:04:01.543Z,99.10
2017-09-04T04:07:07.128Z,99.30
2017-09-04T04:10:14.003Z,99.40
2017-09-04T04:13:19.396Z,99.60
2017-09-04T04:16:24.615Z,99.50
2017-09-04T04:19:30.384Z,99.50
2017-09-04T04:22:36.404Z,99.70
2017-09-04T04:25:41.831Z,99.70
2017-09-04T04:28:47.275Z,99.80
2017-09-04T04:31:52.572Z,99.70
2017-09-04T04:35:01.908Z,99.70
2017-09-04T04:38:07.106Z,99.50
2017-09-04T04:41:20.987Z,99.90
2017-09-04T04:44:26.503Z,99.90
2017-09-04T04:47:38.471Z,99.90
2017-09-04T04:50:43.935Z,99.90
2017-09-04T04:53:50.271Z,99.90
2017-09-04T04:56:55.092Z,99.80
2017-09-04T05:00:00.195Z,99.50
2017-09-04T05:03:05.620Z,99.30
2017-09-04T05:06:11.275Z,99.50
2017-09-04T05:09:16.947Z,99.60
2017-09-04T05:12:22.480Z,99.60
2017-09-04T05:15:31.267Z,99.60
2017-09-04T05:18:38.441Z,99.70
2017-09-04T05:21:43.784Z,99.80
2017-09-04T05:25:07.025Z,99.70
2017-09-04T05:28:12.301Z,99.40
2017-09-04T05:31:19.191Z,99.50
2017-09-04T05:34:25.331Z,99.70
2017-09-04T05:37:30.675Z,99.80
2017-09-04T05:40:36.388Z,99.90
2017-09-04T05:43:41.268Z,99.90
2017-09-04T05:46:46.494Z,99.80
2017-09-04T05:49:51.355Z,99.70
2017-09-04T05:52:56.457Z,99.70
2017-09-04T05:56:02.153Z,99.90
2017-09-04T05:59:07.775Z,99.80
2017-09-04T06:02:12.999Z,99.80
2017-09-04T06:05:18.216Z,99.90
2017-09-04T06:08:23.347Z,99.70
2017-09-04T06:11:28.347Z,99.70
2017-09-04T06:14:33.068Z,98.90
2017-09-04T06:17:41.157Z,99.00
2017-09-04T06:20:46.851Z,98.70
2017-09-04T06:23:52.015Z,98.10
2017-09-04T06:26:57.643Z,97.10
2017-09-04T06:30:04.535Z,97.20
2017-09-04T06:33:09.401Z,96.20
2017-09-04T06:36:21.103Z,95.70
2017-09-04T06:39:25.904Z,95.40
2017-09-04T06:42:30.963Z,95.50
2017-09-04T06:45:36.670Z,95.30
2017-09-04T06:48:44.161Z,95.70
2017-09-04T06:51:49.088Z,95.20
2017-09-04T06:54:54.115Z,95.60
2017-09-04T07:00:37.724Z,94.30
2017-09-04T07:03:42.752Z,94.70
2017-09-04T07:06:47.387Z,94.70
2017-09-04T07:09:52.726Z,93.90
2017-09-04T07:12:57.944Z,93.10
2017-09-04T07:16:03.518Z,93.30
2017-09-04T07:19:08.540Z,93.10
2017-09-04T07:22:13.919Z,93.30
2017-09-04T07:25:21.128Z,92.70
2017-09-04T07:28:26.048Z,92.40
2017-09-04T07:31:31.580Z,93.20
2017-09-04T07:34:36.580Z,92.60
2017-09-04T07:37:41.476Z,91.50
2017-09-04T07:40:47.465Z,91.60
2017-09-04T07:43:52.295Z,91.40
2017-09-04T07:46:58.116Z,91.30
2017-09-04T07:50:03.330Z,90.20
2017-09-04T07:53:09.040Z,89.50
2017-09-04T07:56:16.180Z,90.60
2017-09-04T07:59:21.282Z,90.00
2017-09-04T08:02:27.640Z,87.10
2017-09-04T08:05:33.283Z,87.20
2017-09-04T08:08:38.939Z,87.00
2017-09-04T08:11:44.525Z,88.30
2017-09-04T08:14:49.336Z,87.60
2017-09-04T08:17:54.150Z,88.70
2017-09-04T08:20:59.458Z,87.50
2017-09-04T08:24:04.598Z,87.00
2017-09-04T08:27:09.871Z,85.40
2017-09-04T08:30:15.231Z,86.20
2017-09-04T08:33:20.420Z,84.50
2017-09-04T08:36:25.531Z,83.50
2017-09-04T08:39:30.622Z,83.20
2017-09-04T08:42:36.395Z,82.40
2017-09-04T08:45:41.796Z,82.20
2017-09-04T08:48:46.700Z,80.70
2017-09-04T08:51:52.154Z,78.50
2017-09-04T08:54:57.946Z,77.80
2017-09-04T08:58:02.571Z,75.70
2017-09-04T09:01:08.356Z,77.20
2017-09-04T09:04:13.698Z,76.60
2017-09-04T09:07:20.355Z,76.70
2017-09-04T09:10:25.653Z,74.60
2017-09-04T09:13:33.464Z,77.00
2017-09-04T09:16:39.075Z,78.40
2017-09-04T09:19:44.538Z,75.90
2017-09-04T09:22:50.570Z,75.00
2017-09-04T09:25:56.076Z,74.90
2017-09-04T09:29:01.203Z,76.80
2017-09-04T09:32:06.511Z,74.10
2017-09-04T09:35:11.427Z,72.70
2017-09-04T09:38:16.353Z,70.50
2017-09-04T09:41:21.588Z,68.30
2017-09-04T09:44:26.534Z,70.30
2017-09-04T09:47:32.251Z,66.80
2017-09-04T09:50:37.486Z,67.70
2017-09-04T09:53:43.125Z,69.20
2017-09-04T09:56:48.787Z,66.60
2017-09-04T09:59:55.477Z,65.30
2017-09-04T10:03:01.056Z,66.50
2017-09-04T10:06:05.764Z,68.20
2017-09-04T10:09:11.479Z,66.40
2017-09-04T10:12:17.381Z,64.80
2017-09-04T10:15:22.695Z,64.60
2017-09-04T10:18:28.604Z,62.70
2017-09-04T10:21:33.872Z,62.40
2017-09-04T10:24:39.140Z,60.90
2017-09-04T10:27:44.879Z,60.40
2017-09-04T10:30:49.932Z,61.60
2017-09-04T10:33:55.409Z,60.30
2017-09-04T10:37:00.311Z,60.90
2017-09-04T10:40:05.976Z,60.70
2017-09-04T10:43:23.839Z,62.00
2017-09-04T10:46:31.891Z,62.00
2017-09-04T10:49:40.634Z,62.00
2017-09-04T10:52:46.386Z,60.00
2017-09-04T10:55:51.687Z,60.80
2017-09-04T10:58:57.330Z,61.20
2017-09-04T11:02:02.743Z,60.80
2017-09-04T11:05:08.352Z,60.90
2017-09-04T11:08:13.680Z,60.70
2017-09-04T11:11:18.887Z,60.50
2017-09-04T11:14:24.718Z,59.10
2017-09-04T11:17:29.608Z,61.20
2017-09-04T11:20:34.536Z,60.50
2017-09-04T11:23:40.765Z,60.00
2017-09-04T11:26:45.637Z,60.50
2017-09-04T11:30:10.648Z,60.70
2017-09-04T11:33:23.211Z,60.70
2017-09-04T11:36:28.421Z,58.60
2017-09-04T11:39:33.427Z,60.40
2017-09-04T11:42:39.236Z,59.50
2017-09-04T11:45:44.711Z,59.30
2017-09-04T11:48:58.730Z,58.80
2017-09-04T11:52:03.689Z,59.50
2017-09-04T11:55:08.469Z,58.90
2017-09-04T11:58:13.285Z,58.80
2017-09-04T12:01:18.514Z,59.60
2017-09-04T12:04:27.072Z,60.30
2017-09-04T12:07:32.429Z,59.40
2017-09-04T12:10:38.289Z,58.50
2017-09-04T12:13:43.899Z,59.20
2017-09-04T12:16:52.622Z,59.00
2017-09-04T12:20:06.973Z,57.50
2017-09-04T12:23:12.123Z,58.50
2017-09-04T12:26:33.715Z,57.10
2017-09-04T12:29:43.668Z,53.70
2017-09-04T12:33:00.971Z,54.00
2017-09-04T12:36:05.895Z,53.20
2017-09-04T12:39:10.781Z,54.40
2017-09-04T12:42:15.592Z,54.70
2017-09-04T12:45:21.184Z,52.40
2017-09-04T12:48:26.045Z,54.20
2017-09-04T12:51:31.403Z,53.20
2017-09-04T12:54:40.979Z,54.00
2017-09-04T12:57:46.306Z,53.30
2017-09-04T13:00:51.461Z,53.30
2017-09-04T13:03:56.255Z,51.90
2017-09-04T13:07:01.724Z,52.70
2017-09-04T13:10:06.889Z,52.90
2017-09-04T13:13:13.421Z,51.20
2017-09-04T13:16:24.938Z,51.20
2017-09-04T13:19:36.292Z,52.40
2017-09-04T13:22:47.531Z,52.20
2017-09-04T13:25:59.250Z,50.80
2017-09-04T13:33:06.732Z,54.50
2017-09-04T13:36:17.799Z,54.70
2017-09-04T13:39:28.784Z,54.50
2017-09-04T13:42:40.113Z,55.80
2017-09-04T13:49:31.149Z,53.60
2017-09-04T13:56:21.110Z,52.10
2017-09-04T13:59:32.520Z,54.30
2017-09-04T14:02:45.119Z,55.40
2017-09-04T14:09:34.896Z,56.40
2017-09-04T14:16:26.304Z,56.50
2017-09-04T14:19:33.715Z,57.50
2017-09-04T14:22:39.916Z,58.20
2017-09-04T14:25:44.644Z,57.40
2017-09-04T14:28:50.131Z,59.10
2017-09-04T14:31:54.867Z,58.70
2017-09-04T14:35:00.067Z,59.20
2017-09-04T14:38:05.198Z,59.70
2017-09-04T14:41:14.060Z,59.90
2017-09-04T14:44:20.348Z,61.40
2017-09-04T14:47:26.172Z,61.20
2017-09-04T14:50:31.835Z,60.40
2017-09-04T14:53:36.645Z,61.60
2017-09-04T14:56:42.229Z,61.60
2017-09-04T14:59:47.244Z,62.70
2017-09-04T15:02:52.640Z,62.40
2017-09-04T15:05:59.063Z,63.50
2017-09-04T15:09:04.606Z,63.70
2017-09-04T15:12:09.575Z,63.00
2017-09-04T15:15:14.785Z,64.00
2017-09-04T15:18:20.395Z,65.30
2017-09-04T15:21:26.090Z,65.40
2017-09-04T15:24:31.232Z,67.10
2017-09-04T15:27:36.643Z,69.60
2017-09-04T15:30:41.810Z,69.30
2017-09-04T15:33:46.475Z,69.80
2017-09-04T15:36:51.847Z,71.20
2017-09-04T15:39:57.543Z,73.00
2017-09-04T15:43:03.029Z,73.90
2017-09-04T15:46:08.443Z,75.10
2017-09-04T15:49:13.524Z,77.20
2017-09-04T15:52:18.340Z,75.40
2017-09-04T15:55:23.325Z,76.90
2017-09-04T15:58:28.762Z,78.40
2017-09-04T16:01:34.475Z,78.60
2017-09-04T16:04:39.784Z,80.90
2017-09-04T16:07:50.624Z,80.40
2017-09-04T16:10:56.370Z,79.00
2017-09-04T16:14:04.552Z,78.80
2017-09-04T16:17:15.597Z,79.40
2017-09-04T16:20:22.648Z,79.40
2017-09-04T16:23:33.564Z,80.80
2017-09-04T16:26:45.127Z,82.30
2017-09-04T16:30:08.625Z,83.50
2017-09-04T16:33:19.578Z,83.80
2017-09-04T16:36:25.469Z,83.40
2017-09-04T16:39:33.123Z,83.80
2017-09-04T16:46:24.819Z,85.60
2017-09-04T16:49:31.492Z,86.30
2017-09-04T16:52:47.368Z,87.10
2017-09-04T16:59:40.692Z,87.30
2017-09-04T17:02:46.105Z,85.20
2017-09-04T17:05:51.529Z,86.00
2017-09-04T17:08:56.529Z,86.20
2017-09-04T17:12:02.155Z,85.80
2017-09-04T17:15:07.317Z,86.00
2017-09-04T17:18:21.484Z,86.50
2017-09-04T17:21:28.227Z,86.90
2017-09-04T17:24:41.036Z,87.40
2017-09-04T17:27:46.143Z,87.70
2017-09-04T17:30:51.255Z,87.80
2017-09-04T17:33:56.100Z,88.50
2017-09-04T17:37:01.380Z,89.20
2017-09-04T17:40:08.722Z,89.60
2017-09-04T17:43:13.933Z,90.00
2017-09-04T17:46:19.585Z,90.10
2017-09-04T17:49:27.196Z,90.20
2017-09-04T17:52:32.725Z,90.30
2017-09-04T17:55:38.588Z,90.60
2017-09-04T17:58:43.673Z,90.60
2017-09-04T18:01:51.855Z,90.70
2017-09-04T18:04:56.776Z,91.30
2017-09-04T18:08:02.168Z,91.20
2017-09-04T18:11:06.955Z,90.50
2017-09-04T18:14:12.439Z,91.30
2017-09-04T18:17:19.247Z,91.50
2017-09-04T18:20:24.924Z,91.70
2017-09-04T18:23:30.207Z,91.70
2017-09-04T18:26:35.491Z,91.70
2017-09-04T18:29:40.411Z,92.00
2017-09-04T18:32:46.920Z,92.30
2017-09-04T18:35:52.759Z,92.30
2017-09-04T18:38:57.528Z,92.10
2017-09-04T18:42:02.440Z,92.20
2017-09-04T18:45:08.167Z,93.10
2017-09-04T18:48:13.477Z,93.20
2017-09-04T18:51:19.044Z,93.10
2017-09-04T18:54:24.147Z,93.10
2017-09-04T18:57:29.493Z,93.00
2017-09-04T19:00:34.576Z,93.00
2017-09-04T19:03:39.263Z,93.00
2017-09-04T19:06:44.758Z,93.00
2017-09-04T19:09:50.247Z,93.10
2017-09-04T19:12:55.856Z,93.30
2017-09-04T19:16:01.484Z,93.50
2017-09-04T19:19:07.064Z,93.80
2017-09-04T19:22:12.639Z,93.70
2017-09-04T19:25:17.364Z,93.40
2017-09-04T19:28:22.309Z,93.50
2017-09-04T19:31:27.304Z,93.50
2017-09-04T19:34:32.627Z,93.40
2017-09-04T19:37:37.385Z,93.50
2017-09-04T19:40:44.341Z,93.70
2017-09-04T19:43:50.675Z,93.70
2017-09-04T19:46:56.016Z,93.60
2017-09-04T19:50:01.813Z,93.40
2017-09-04T19:53:07.123Z,93.30
2017-09-04T19:56:12.873Z,93.30
2017-09-04T19:59:19.716Z,92.80
2017-09-04T20:02:25.087Z,92.30
2017-09-04T20:05:30.782Z,92.40
2017-09-04T20:08:36.288Z,92.30
2017-09-04T20:11:41.571Z,92.40
2017-09-04T20:14:52.892Z,92.50
2017-09-04T20:17:58.064Z,92.30
2017-09-04T20:21:03.622Z,92.30
2017-09-04T20:24:12.354Z,92.30
2017-09-04T20:27:18.063Z,92.20
2017-09-04T20:30:25.476Z,92.10
2017-09-04T20:33:30.504Z,91.80
2017-09-04T20:36:35.628Z,91.70
2017-09-04T20:39:41.128Z,91.70
2017-09-04T20:42:51.276Z,91.70
2017-09-04T20:45:56.255Z,91.50
2017-09-04T20:49:01.572Z,91.90
2017-09-04T20:52:06.354Z,91.80
2017-09-04T20:55:12.968Z,91.30
2017-09-04T20:58:19.917Z,90.80
2017-09-04T21:01:25.167Z,90.60
2017-09-04T21:04:31.485Z,91.00
2017-09-04T21:07:40.971Z,90.70
2017-09-04T21:10:46.588Z,89.70
2017-09-04T21:13:52.593Z,88.90
2017-09-04T21:16:57.440Z,88.60
2017-09-04T21:20:03.139Z,88.60
2017-09-04T21:23:08.620Z,89.20
2017-09-04T21:26:14.185Z,88.60
2017-09-04T21:29:19.129Z,90.00
2017-09-04T21:32:24.631Z,90.30
2017-09-04T21:35:30.227Z,90.40
2017-09-04T21:38:35.127Z,90.20
2017-09-04T21:41:39.888Z,90.50
2017-09-04T21:44:45.182Z,91.30
2017-09-04T21:47:49.981Z,91.50
2017-09-04T21:50:55.657Z,91.80
2017-09-04T21:54:01.569Z,92.20
2017-09-04T21:57:06.836Z,92.20
2017-09-04T22:00:12.578Z,92.50
2017-09-04T22:03:18.895Z,92.60
2017-09-04T22:06:24.472Z,93.00
2017-09-04T22:09:29.396Z,93.00
2017-09-04T22:12:34.329Z,93.50
2017-09-04T22:15:40.372Z,93.40
2017-09-04T22:18:45.563Z,93.70
2017-09-04T22:21:50.614Z,94.30
2017-09-04T22:24:56.243Z,94.80
2017-09-04T22:28:01.733Z,94.90
2017-09-04T22:31:07.308Z,94.90
2017-09-04T22:34:12.831Z,94.70
2017-09-04T22:37:17.708Z,94.60
2017-09-04T22:40:22.961Z,94.30
2017-09-04T22:43:28.066Z,94.60
2017-09-04T22:46:33.256Z,94.70
2017-09-04T22:49:38.947Z,94.70
2017-09-04T22:52:44.387Z,94.70
2017-09-04T22:55:50.139Z,94.80
2017-09-04T22:59:00.308Z,95.50
2017-09-04T23:02:06.115Z,95.90
2017-09-04T23:05:11.568Z,96.40
2017-09-04T23:08:21.259Z,96.70
2017-09-04T23:11:26.374Z,95.80
2017-09-04T23:14:31.149Z,95.90
2017-09-04T23:17:36.128Z,96.10
2017-09-04T23:20:41.535Z,96.10
2017-09-04T23:23:46.703Z,95.90
2017-09-04T23:26:51.647Z,95.10
2017-09-04T23:29:56.558Z,94.90
2017-09-04T23:33:01.624Z,95.10
2017-09-04T23:36:07.687Z,94.90
2017-09-04T23:39:12.989Z,95.00
2017-09-04T23:42:20.180Z,95.50
2017-09-04T23:45:25.388Z,95.40
2017-09-04T23:48:30.555Z,95.10
2017-09-04T23:51:35.891Z,95.00
2017-09-04T23:54:41.008Z,95.10
2017-09-04T23:57:46.672Z,95.30
